Time;durP1;ratioP1;P1;durP2;ratioP2;P2;SDS_P1;SDS_P2;PMS_P1;PMS_P2;Temp;Humidity;BMP_temperature;BMP_pressure;BME280_temperature;BME280_humidity;BME280_pressure;Samples;Min_cycle;Max_cycle;Signal;HPM_P1;HPM_P2
2021/01/04 00:02:36;;;;;;;;;;;;;;;3.68;100.00;97557.59;5023619;28;19932;-89
2021/01/04 00:05:01;;;;;;;;;;;;;;;3.70;100.00;97552.72;5009304;28;19990;-85
2021/01/04 00:07:45;;;;;;;;;;;;;;;3.73;100.00;97546.78;5004265;28;19901;-82
2021/01/04 00:10:33;;;;;;;;;;;;;;;3.69;100.00;97554.63;5004010;28;19909;-81
2021/01/04 00:13:09;;;;;;;;;;;;;;;3.72;100.00;97553.28;5003144;28;19901;-87
2021/01/04 00:15:41;;;;;;;;;;;;;;;3.66;100.00;97562.44;5001922;28;19897;-88
2021/01/04 00:18:06;;;;;;;;;;;;;;;3.75;100.00;97550.06;5001623;28;19945;-88
2021/01/04 00:20:38;;;;;;;;;;;;;;;3.69;100.00;97551.13;5000559;28;19921;-86
2021/01/04 00:23:07;;;;;;;;;;;;;;;3.67;100.00;97553.25;5003251;28;19898;-86
2021/01/04 00:25:51;;;;;;;;;;;;;;;3.73;100.00;97542.19;5003666;28;19924;-90
2021/01/04 00:28:19;;;;;;;;;;;;;;;3.75;100.00;97550.06;5017519;28;19918;-89
2021/01/04 00:31:11;;;;;;;;;;;;;;;3.74;100.00;97551.13;4996997;28;19937;-88
2021/01/04 00:33:48;;;;;;;;;;;;;;;3.71;100.00;97548.94;4974288;28;19918;-85
2021/01/04 00:36:20;;;;;;;;;;;;;;;3.67;100.00;97553.25;4993436;28;19906;-86
2021/01/04 00:39:00;;;;;;;;;;;;;;;3.67;100.00;97558.66;4995675;28;19898;-86
2021/01/04 00:41:32;;;;;;;;;;;;;;;3.67;100.00;97558.66;4996046;28;19918;-87
2021/01/04 00:43:58;;;;;;;;;;;;;;;3.58;100.00;97554.81;4996338;28;19906;-88
2021/01/04 00:46:29;;;;;;;;;;;;;;;3.55;100.00;97564.25;4996338;28;19914;-89
2021/01/04 00:49:18;;;;;;;;;;;;;;;3.61;100.00;97554.28;4995507;28;19902;-85
2021/01/04 00:51:46;;;;;;;;;;;;;;;3.63;100.00;97554.88;4998064;28;19933;-87
2021/01/04 00:54:34;;;;;;;;;;;;;;;3.57;100.00;97551.28;4997923;28;19938;-86
2021/01/04 00:57:12;;;;;;;;;;;;;;;3.52;100.00;97551.25;5000265;28;19918;-87
2021/01/04 00:59:37;;;;;;;;;;;;;;;3.54;100.00;97561.84;4998457;28;19902;-86
2021/01/04 01:02:15;;;;;;;;;;;;;;;3.47;100.00;97558.53;4995792;28;19921;-87
2021/01/04 01:04:40;;;;;;;;;;;;;;;3.49;100.00;97557.19;4996311;28;19898;-87
2021/01/04 01:07:09;;;;;;;;;;;;;;;3.49;100.00;97568.00;4997149;28;20048;-86
2021/01/04 01:09:35;;;;;;;;;;;;;;;3.55;100.00;97563.44;4997268;28;19924;-86
2021/01/04 01:12:10;;;;;;;;;;;;;;;3.55;100.00;97558.03;4996786;28;19925;-83
2021/01/04 01:14:41;;;;;;;;;;;;;;;3.44;100.00;97575.28;4998117;28;19925;-85
2021/01/04 01:17:38;;;;;;;;;;;;;;;3.43;100.00;97568.22;4995996;28;19914;-89
2021/01/04 01:20:05;;;;;;;;;;;;;;;3.38;100.00;97574.44;4995529;28;19918;-87
2021/01/04 01:22:35;;;;;;;;;;;;;;;3.35;100.00;97576.81;4994443;28;19934;-86
2021/01/04 01:25:04;;;;;;;;;;;;;;;3.34;100.00;97577.88;4996481;28;19911;-84
2021/01/04 01:27:35;;;;;;;;;;;;;;;3.30;100.00;97579.47;4996499;28;19918;-85
2021/01/04 01:30:19;;;;;;;;;;;;;;;3.21;100.00;97569.16;4995181;28;19973;-88
2021/01/04 01:32:51;;;;;;;;;;;;;;;3.26;100.00;97573.75;5014490;28;19981;-87
2021/01/04 01:35:28;;;;;;;;;;;;;;;3.17;100.00;97573.44;4997279;28;19913;-89
2021/01/04 01:38:09;;;;;;;;;;;;;;;3.24;100.00;97568.63;4997098;28;20314;-84
2021/01/04 01:40:54;;;;;;;;;;;;;;;3.22;100.00;97568.09;4998113;28;20001;-87
2021/01/04 01:43:19;;;;;;;;;;;;;;;3.22;100.00;97581.59;4998486;28;19913;-85
2021/01/04 01:45:55;;;;;;;;;;;;;;;3.34;100.00;97578.72;4999061;28;19914;-84
2021/01/04 01:48:40;;;;;;;;;;;;;;;3.32;100.00;97580.03;5014214;28;19918;-90
2021/01/04 01:51:25;;;;;;;;;;;;;;;3.36;100.00;97578.44;4998552;28;19914;-86
2021/01/04 01:54:09;;;;;;;;;;;;;;;3.35;100.00;97576.81;4985916;28;19940;-86
2021/01/04 01:56:50;;;;;;;;;;;;;;;3.36;100.00;97576.56;5017628;28;19902;-85
2021/01/04 01:59:34;;;;;;;;;;;;;;;3.31;100.00;97571.13;5015358;28;19963;-88
2021/01/04 02:02:03;;;;;;;;;;;;;;;3.38;100.00;97570.91;5013433;28;19980;-88
2021/01/04 02:04:34;;;;;;;;;;;;;;;3.37;100.00;97569.25;5014209;28;19913;-88
2021/01/04 02:07:03;;;;;;;;;;;;;;;3.32;100.00;97567.31;5015340;28;20005;-90
2021/01/04 02:09:31;;;;;;;;;;;;;;;3.33;100.00;97574.38;5013156;28;19924;-87
2021/01/04 02:12:11;;;;;;;;;;;;;;;3.27;100.00;97575.41;4997005;28;19913;-90
2021/01/04 02:14:40;;;;;;;;;;;;;;;3.35;100.00;97585.75;4996156;28;19913;-86
2021/01/04 02:17:17;;;;;;;;;;;;;;;3.30;100.00;97577.59;4996264;28;19960;-87
2021/01/04 02:20:09;;;;;;;;;;;;;;;3.29;100.00;97577.88;4995849;28;19914;-90
2021/01/04 02:23:03;;;;;;;;;;;;;;;3.32;100.00;97566.53;4966815;28;19921;-85
2021/01/04 02:25:30;;;;;;;;;;;;;;;3.34;100.00;97569.78;5009063;28;20370;-86
2021/01/04 02:28:00;;;;;;;;;;;;;;;3.27;100.00;97566.47;5013893;28;19914;-86
2021/01/04 02:30:25;;;;;;;;;;;;;;;3.31;100.00;97559.50;4996572;28;19940;-89
2021/01/04 02:32:51;;;;;;;;;;;;;;;3.27;100.00;97558.38;5013649;28;20011;-89
2021/01/04 02:35:16;;;;;;;;;;;;;;;3.29;100.00;97550.84;4997135;28;19914;-87
2021/01/04 02:37:42;;;;;;;;;;;;;;;3.29;100.00;97551.63;4997097;28;19902;-88
2021/01/04 02:40:13;;;;;;;;;;;;;;;3.30;100.00;97555.16;4997826;28;19918;-85
2021/01/04 02:42:40;;;;;;;;;;;;;;;3.26;100.00;97554.06;4998431;28;19945;-86
2021/01/04 02:45:08;;;;;;;;;;;;;;;3.18;100.00;97547.22;5016543;28;19937;-86
2021/01/04 02:47:43;;;;;;;;;;;;;;;3.16;100.00;97547.47;5013555;28;19944;-88
2021/01/04 02:50:14;;;;;;;;;;;;;;;3.22;100.00;97542.94;5013881;28;19948;-85
2021/01/04 02:52:58;;;;;;;;;;;;;;;3.23;100.00;97542.69;5014296;28;19948;-88
2021/01/04 02:55:35;;;;;;;;;;;;;;;3.24;100.00;97538.09;5014234;28;19918;-86
2021/01/04 02:58:04;;;;;;;;;;;;;;;3.24;100.00;97538.09;5015691;28;19914;-85
2021/01/04 03:00:29;;;;;;;;;;;;;;;3.23;100.00;97536.44;5017866;28;19913;-86
2021/01/04 03:02:58;;;;;;;;;;;;;;;3.26;100.00;97527.81;4999226;28;19994;-84
2021/01/04 03:05:24;;;;;;;;;;;;;;;3.20;100.00;97529.69;5015967;28;19914;-88
2021/01/04 03:07:51;;;;;;;;;;;;;;;3.24;100.00;97540.78;5000214;28;19914;-86
2021/01/04 03:10:24;;;;;;;;;;;;;;;3.22;100.00;97540.25;5017010;28;19897;-84
2021/01/04 03:13:16;;;;;;;;;;;;;;;3.20;100.00;97543.19;5017794;28;19926;-83
2021/01/04 03:15:56;;;;;;;;;;;;;;;3.22;100.00;97540.25;4988464;28;19913;-88
2021/01/04 03:18:32;;;;;;;;;;;;;;;3.18;100.00;97539.94;5000934;28;19917;-87
2021/01/04 03:21:00;;;;;;;;;;;;;;;3.15;100.00;97528.84;5000893;28;19940;-87
2021/01/04 03:23:25;;;;;;;;;;;;;;;3.21;100.00;97531.31;5019833;28;19917;-87
2021/01/04 03:26:09;;;;;;;;;;;;;;;3.15;100.00;97523.44;5021096;28;19933;-85
2021/01/04 03:28:34;;;;;;;;;;;;;;;3.20;100.00;97528.88;5004909;28;19989;-85
2021/01/04 03:31:01;;;;;;;;;;;;;;;3.23;100.00;97529.16;5004093;28;19926;-83
2021/01/04 03:33:27;;;;;;;;;;;;;;;3.20;100.00;97516.16;5021374;28;19902;-84
2021/01/04 03:35:53;;;;;;;;;;;;;;;3.23;100.00;97517.53;5002904;28;19941;-85
2021/01/04 03:38:19;;;;;;;;;;;;;;;3.25;100.00;97510.00;5018393;28;19898;-84
2021/01/04 03:40:45;;;;;;;;;;;;;;;3.23;100.00;97504.84;5017774;28;19949;-89
2021/01/04 03:43:11;;;;;;;;;;;;;;;3.30;100.00;97507.31;5000232;28;19937;-86
2021/01/04 03:45:36;;;;;;;;;;;;;;;3.29;100.00;97502.97;5000756;28;19917;-87
2021/01/04 03:48:02;;;;;;;;;;;;;;;3.29;100.00;97508.38;5018005;28;19902;-90
2021/01/04 03:50:27;;;;;;;;;;;;;;;3.28;100.00;97508.66;5002227;28;19925;-87
2021/01/04 03:52:53;;;;;;;;;;;;;;;3.27;100.00;97504.31;5003880;28;19960;-83
2021/01/04 03:55:18;;;;;;;;;;;;;;;3.34;100.00;97513.03;5001878;28;19913;-85
2021/01/04 03:57:44;;;;;;;;;;;;;;;3.32;100.00;97512.50;5002433;28;19900;-86
2021/01/04 04:00:10;;;;;;;;;;;;;;;3.43;99.73;97503.34;5020083;28;19909;-84
2021/01/04 04:02:36;;;;;;;;;;;;;;;3.41;100.00;97510.91;5018282;28;19918;-85
2021/01/04 04:05:02;;;;;;;;;;;;;;;3.31;100.00;97511.66;5016648;28;19936;-88
2021/01/04 04:07:31;;;;;;;;;;;;;;;3.31;100.00;97505.44;5016548;28;19922;-90
2021/01/04 04:09:56;;;;;;;;;;;;;;;3.34;100.00;97510.31;5017215;28;19922;-85
2021/01/04 04:12:22;;;;;;;;;;;;;;;3.38;100.00;97511.44;5002323;28;19925;-87
2021/01/04 04:14:48;;;;;;;;;;;;;;;3.35;100.00;97506.56;5000629;28;20978;-86
2021/01/04 04:17:14;;;;;;;;;;;;;;;3.29;100.00;97508.38;5000408;28;19913;-88
2021/01/04 04:19:39;;;;;;;;;;;;;;;3.27;99.99;97509.72;4997842;28;19945;-86
2021/01/04 04:22:04;;;;;;;;;;;;;;;3.27;100.00;97512.44;5016074;28;19914;-87
2021/01/04 04:24:30;;;;;;;;;;;;;;;3.41;100.00;97506.34;5014481;28;19921;-83
2021/01/04 04:26:55;;;;;;;;;;;;;;;3.49;100.00;97507.72;5013685;28;19914;-86
2021/01/04 04:29:21;;;;;;;;;;;;;;;3.39;100.00;97508.47;5014805;28;19914;-85
2021/01/04 04:31:47;;;;;;;;;;;;;;;3.37;100.00;97517.91;4996327;28;19925;-87
2021/01/04 04:34:13;;;;;;;;;;;;;;;3.38;100.00;97523.06;5016952;28;19944;-88
2021/01/04 04:36:43;;;;;;;;;;;;;;;3.34;100.00;97521.97;4999920;28;19913;-84
2021/01/04 04:39:10;;;;;;;;;;;;;;;3.44;99.48;97515.81;5016026;28;20312;-86
2021/01/04 04:41:42;;;;;;;;;;;;;;;3.42;100.00;97517.94;5016131;28;19918;-86
2021/01/04 04:44:12;;;;;;;;;;;;;;;3.34;99.92;97516.56;5017619;28;19957;-88
2021/01/04 04:46:52;;;;;;;;;;;;;;;3.30;100.00;97525.41;5002379;28;19909;-88
2021/01/04 04:49:23;;;;;;;;;;;;;;;3.22;100.00;97516.75;5014250;28;19901;-89
2021/01/04 04:52:02;;;;;;;;;;;;;;;3.16;100.00;97525.06;5002829;28;19902;-84
2021/01/04 04:54:46;;;;;;;;;;;;;;;3.09;100.00;97525.28;5019731;28;19914;-90
2021/01/04 04:57:14;;;;;;;;;;;;;;;3.10;100.00;97526.09;5003683;28;19968;-84
2021/01/04 04:59:40;;;;;;;;;;;;;;;3.15;100.00;97535.06;5002904;28;19902;-85
2021/01/04 05:02:17;;;;;;;;;;;;;;;3.29;100.00;97529.22;5002997;28;19925;-86
2021/01/04 05:04:52;;;;;;;;;;;;;;;3.25;100.00;97528.91;5019485;28;19909;-83
2021/01/04 05:07:28;;;;;;;;;;;;;;;3.27;100.00;97536.75;5019160;28;19925;-85
2021/01/04 05:09:53;;;;;;;;;;;;;;;3.22;100.00;97540.25;5002202;28;19925;-88
2021/01/04 05:12:31;;;;;;;;;;;;;;;3.22;100.00;97535.66;5002547;28;19917;-83
2021/01/04 05:14:59;;;;;;;;;;;;;;;3.35;100.00;97545.22;5018145;28;19965;-86
2021/01/04 05:17:42;;;;;;;;;;;;;;;3.27;100.00;97539.44;4997509;28;19918;-87
2021/01/04 05:20:30;;;;;;;;;;;;;;;3.32;100.00;97548.41;4997771;28;19918;-85
2021/01/04 05:23:11;;;;;;;;;;;;;;;3.22;100.00;97546.47;5013455;28;19898;-85
2021/01/04 05:25:36;;;;;;;;;;;;;;;3.23;100.00;97552.66;5014767;28;19910;-88
2021/01/04 05:28:25;;;;;;;;;;;;;;;3.33;100.00;97550.03;5016424;28;19989;-86
2021/01/04 05:30:59;;;;;;;;;;;;;;;3.31;100.00;97548.69;4995386;28;19918;-85
2021/01/04 05:33:43;;;;;;;;;;;;;;;3.28;100.00;97543.78;4997225;28;19898;-87
2021/01/04 05:36:14;;;;;;;;;;;;;;;3.36;100.00;97551.41;5013098;28;19914;-87
2021/01/04 05:38:59;;;;;;;;;;;;;;;3.31;100.00;97551.38;5015753;28;19904;-87
2021/01/04 05:41:24;;;;;;;;;;;;;;;3.33;100.00;97551.94;4997638;28;19973;-89
2021/01/04 05:44:02;;;;;;;;;;;;;;;3.26;100.00;97554.06;5001290;28;19909;-86
2021/01/04 05:46:32;;;;;;;;;;;;;;;3.52;100.00;97555.84;5029841;28;19964;-88
2021/01/04 05:49:00;;;;;;;;;;;;;;;3.43;100.00;97562.81;5021261;28;19917;-86
2021/01/04 05:51:34;;;;;;;;;;;;;;;3.40;100.00;97555.22;5020231;28;19924;-87
2021/01/04 05:53:59;;;;;;;;;;;;;;;3.42;100.00;97553.06;5019536;28;19945;-88
2021/01/04 05:56:26;;;;;;;;;;;;;;;3.35;100.00;97547.91;5033602;28;19901;-87
2021/01/04 05:58:52;;;;;;;;;;;;;;;3.34;100.00;97553.56;5020278;28;19984;-88
2021/01/04 06:01:24;;;;;;;;;;;;;;;3.35;100.00;97549.81;5033859;28;19914;-88
2021/01/04 06:03:58;;;;;;;;;;;;;;;3.29;100.00;97551.63;5015831;28;19913;-90
2021/01/04 06:06:43;;;;;;;;;;;;;;;3.27;100.00;97553.78;5005589;28;19917;-88
2021/01/04 06:09:13;;;;;;;;;;;;;;;3.28;100.00;97549.19;5011091;28;19952;-85
2021/01/04 06:11:47;;;;;;;;;;;;;;;3.36;100.00;97549.53;5019340;28;19913;-81
2021/01/04 06:14:13;;;;;;;;;;;;;;;3.33;100.00;97541.94;5016725;28;19924;-89
2021/01/04 06:16:42;;;;;;;;;;;;;;;3.39;100.00;97543.59;4991061;28;19921;-89
2021/01/04 06:19:09;;;;;;;;;;;;;;;3.34;100.00;97548.16;5005614;28;19984;-88
2021/01/04 06:21:43;;;;;;;;;;;;;;;3.27;100.00;97548.38;4998812;28;19914;-86
2021/01/04 06:24:09;;;;;;;;;;;;;;;3.24;100.00;97548.91;5000177;28;20293;-86
2021/01/04 06:26:35;;;;;;;;;;;;;;;3.27;100.00;97547.56;5003118;28;19914;-81
2021/01/04 06:29:07;;;;;;;;;;;;;;;3.24;100.00;97554.31;4988630;28;20021;-85
2021/01/04 06:31:35;;;;;;;;;;;;;;;3.28;100.00;97552.72;4983056;28;20349;-88
2021/01/04 06:34:04;;;;;;;;;;;;;;;3.27;100.00;97553.78;4985585;28;19925;-85
2021/01/04 06:36:32;;;;;;;;;;;;;;;3.24;100.00;97557.00;4987500;28;19964;-84
2021/01/04 06:39:06;;;;;;;;;;;;;;;3.18;100.00;97558.84;5004130;28;19921;-85
2021/01/04 06:41:32;;;;;;;;;;;;;;;3.18;100.00;97558.84;4986407;28;19928;-80
2021/01/04 06:44:12;;;;;;;;;;;;;;;3.14;100.00;97559.63;4990452;28;19917;-90
2021/01/04 06:46:56;;;;;;;;;;;;;;;3.16;100.00;97560.19;5010411;28;19997;-84
2021/01/04 06:49:26;;;;;;;;;;;;;;;3.10;100.00;97563.94;4989886;28;20295;-77
2021/01/04 06:52:14;;;;;;;;;;;;;;;3.14;100.00;97571.25;5006674;28;19925;-80
2021/01/04 06:54:42;;;;;;;;;;;;;;;3.17;100.00;97568.03;5012557;28;19957;-78
2021/01/04 06:57:17;;;;;;;;;;;;;;;3.17;100.00;97572.59;5009376;28;19922;-85
2021/01/04 07:00:05;;;;;;;;;;;;;;;3.22;100.00;97576.19;4985028;28;19937;-83
2021/01/04 07:02:42;;;;;;;;;;;;;;;3.27;100.00;97580.81;4969799;28;19913;-83
2021/01/04 07:05:26;;;;;;;;;;;;;;;3.24;100.00;97582.16;5015192;28;19917;-88
2021/01/04 07:08:04;;;;;;;;;;;;;;;3.18;100.00;97577.78;5009933;28;19917;-85
2021/01/04 07:10:32;;;;;;;;;;;;;;;3.18;100.00;97579.66;5002137;28;20012;-87
2021/01/04 07:12:57;;;;;;;;;;;;;;;3.25;100.00;97591.06;4977090;28;19914;-85
2021/01/04 07:15:29;;;;;;;;;;;;;;;3.14;100.00;97586.63;4989641;28;19961;-84
2021/01/04 07:17:55;;;;;;;;;;;;;;;3.11;100.00;97587.97;5008233;28;20362;-89
2021/01/04 07:20:42;;;;;;;;;;;;;;;3.10;100.00;97596.34;4992142;28;19920;-88
2021/01/04 07:23:07;;;;;;;;;;;;;;;2.98;100.00;97599.19;5010370;28;19922;-88
2021/01/04 07:25:55;;;;;;;;;;;;;;;2.92;100.00;97594.81;5008983;28;19913;-84
2021/01/04 07:28:27;;;;;;;;;;;;;;;2.92;100.00;97599.38;4993409;28;19917;-84
2021/01/04 07:30:58;;;;;;;;;;;;;;;2.88;100.00;97593.69;5017100;28;19928;-89
2021/01/04 07:33:32;;;;;;;;;;;;;;;2.89;100.00;97599.91;5002803;28;19917;-91
2021/01/04 07:36:12;;;;;;;;;;;;;;;2.93;100.00;97601.84;5003551;28;19920;-86
2021/01/04 07:38:45;;;;;;;;;;;;;;;3.07;100.00;97602.25;4971961;28;19917;-84
2021/01/04 07:41:20;;;;;;;;;;;;;;;3.09;100.00;97600.94;4971910;28;19914;-87
2021/01/04 07:43:51;;;;;;;;;;;;;;;3.10;100.00;97586.31;4995424;28;19971;-89
2021/01/04 07:46:34;;;;;;;;;;;;;;;3.08;100.00;97603.88;5012977;28;19913;-87
2021/01/04 07:49:16;;;;;;;;;;;;;;;3.10;100.00;97597.13;5024706;28;19944;-84
2021/01/04 07:51:57;;;;;;;;;;;;;;;3.14;100.00;97602.84;4988521;28;19929;-88
2021/01/04 07:54:22;;;;;;;;;;;;;;;3.24;100.00;97601.06;4999509;28;19917;-82
2021/01/04 07:56:54;;;;;;;;;;;;;;;3.27;100.00;97607.00;4988816;28;20278;-86
2021/01/04 07:59:19;;;;;;;;;;;;;;;3.29;100.00;97605.69;5001501;28;19920;-86
2021/01/04 08:02:22;;;;;;;;;;;;;;;3.26;100.00;97613.50;5000076;28;19913;-85
2021/01/04 08:05:06;;;;;;;;;;;;;;;3.21;100.00;97616.97;4976942;28;19925;-85
2021/01/04 08:07:34;;;;;;;;;;;;;;;3.20;100.00;97616.16;4987081;28;19922;-83
2021/01/04 08:10:35;;;;;;;;;;;;;;;3.30;100.00;97612.72;4984890;28;19932;-84
2021/01/04 08:13:28;;;;;;;;;;;;;;;3.27;100.00;97617.81;4920704;29;19918;-84
2021/01/04 08:16:20;;;;;;;;;;;;;;;3.27;100.00;97617.81;4991819;28;20012;-84
2021/01/04 08:18:46;;;;;;;;;;;;;;;3.26;100.00;97616.22;4960297;28;19920;-85
2021/01/04 08:21:20;;;;;;;;;;;;;;;3.24;100.00;97619.97;4986306;28;19918;-87
2021/01/04 08:23:46;;;;;;;;;;;;;;;3.19;100.00;97617.25;4994918;28;19921;-82
2021/01/04 08:26:24;;;;;;;;;;;;;;;3.21;100.00;97625.88;5008592;28;19972;-85
2021/01/04 08:29:03;;;;;;;;;;;;;;;3.29;100.00;97624.59;4979347;28;19913;-87
2021/01/04 08:31:28;;;;;;;;;;;;;;;3.35;100.00;97620.06;4993032;28;20015;-87
2021/01/04 08:33:57;;;;;;;;;;;;;;;3.32;100.00;97620.59;5003644;28;20019;-87
2021/01/04 08:36:25;;;;;;;;;;;;;;;3.21;100.00;97620.50;5006031;28;19944;-86
2021/01/04 08:38:59;;;;;;;;;;;;;;;3.27;100.00;97629.44;5001832;28;19935;-83
2021/01/04 08:41:47;;;;;;;;;;;;;;;3.37;100.00;97617.91;5000171;28;20394;-86
2021/01/04 08:44:14;;;;;;;;;;;;;;;3.43;100.00;97611.47;4988090;28;19913;-86
2021/01/04 08:46:43;;;;;;;;;;;;;;;3.41;100.00;97616.34;4999797;28;19921;-87
2021/01/04 08:49:18;;;;;;;;;;;;;;;3.42;100.00;97617.94;4980731;28;19917;-87
2021/01/04 08:51:45;;;;;;;;;;;;;;;3.42;100.00;97617.94;5003539;28;19921;-86
2021/01/04 08:54:10;;;;;;;;;;;;;;;3.44;100.00;97613.94;4982538;28;19917;-89
2021/01/04 08:56:38;;;;;;;;;;;;;;;3.32;100.00;97621.38;4985696;28;20044;-89
2021/01/04 08:59:06;;;;;;;;;;;;;;;3.26;100.00;97614.28;5004128;28;19949;-88
2021/01/04 09:01:31;;;;;;;;;;;;;;;3.11;100.00;97620.38;5002867;28;19913;-86
2021/01/04 09:04:09;;;;;;;;;;;;;;;3.33;100.00;97619.50;4984250;28;19906;-86
2021/01/04 09:06:41;;;;;;;;;;;;;;;3.10;100.00;97626.84;4983559;28;19928;-85
2021/01/04 09:09:07;;;;;;;;;;;;;;;3.15;100.00;97624.22;4986837;28;19917;-85
2021/01/04 09:11:35;;;;;;;;;;;;;;;3.12;100.00;97622.03;5001769;28;20027;-85
2021/01/04 09:14:19;;;;;;;;;;;;;;;3.16;100.00;97616.94;4984379;28;19917;-87
2021/01/04 09:17:07;;;;;;;;;;;;;;;3.18;100.00;97615.59;5003153;28;19992;-88
2021/01/04 09:19:40;;;;;;;;;;;;;;;3.33;100.00;97611.38;4982964;28;19922;-86
2021/01/04 09:22:07;;;;;;;;;;;;;;;3.35;100.00;97614.66;4981881;28;20323;-85
2021/01/04 09:24:35;;;;;;;;;;;;;;;3.88;100.00;97616.41;5000373;28;19924;-86
2021/01/04 09:27:05;;;;;;;;;;;;;;;3.65;99.09;97614.91;5002812;28;19930;-84
2021/01/04 09:29:38;;;;;;;;;;;;;;;3.88;99.98;97619.94;4982979;28;19924;-87
2021/01/04 09:32:11;;;;;;;;;;;;;;;3.84;99.14;97618.00;5008734;28;20496;-84
2021/01/04 09:34:36;;;;;;;;;;;;;;;4.25;97.79;97617.16;4990731;28;19926;-83
2021/01/04 09:37:12;;;;;;;;;;;;;;;3.87;96.19;97612.06;5014690;28;19920;-90
2021/01/04 09:39:38;;;;;;;;;;;;;;;3.92;96.68;97612.91;4997846;28;19960;-89
2021/01/04 09:42:05;;;;;;;;;;;;;;;3.62;96.98;97613.53;4996001;28;19914;-85
2021/01/04 09:44:31;;;;;;;;;;;;;;;3.34;98.27;97607.63;4976408;28;19996;-87
2021/01/04 09:47:00;;;;;;;;;;;;;;;3.29;99.28;97602.97;4993355;28;19996;-91
2021/01/04 09:49:46;;;;;;;;;;;;;;;3.23;99.46;97602.13;4975769;28;19914;-86
2021/01/04 09:52:18;;;;;;;;;;;;;;;3.29;100.00;97596.78;4975601;28;20385;-88
2021/01/04 09:54:44;;;;;;;;;;;;;;;3.16;100.00;97593.41;4978029;28;19925;-89
2021/01/04 09:57:10;;;;;;;;;;;;;;;3.19;100.00;97594.81;4981694;28;20004;-89
2021/01/04 09:59:43;;;;;;;;;;;;;;;3.18;100.00;97580.47;4981404;28;20445;-91
2021/01/04 10:02:17;;;;;;;;;;;;;;;3.20;100.00;97593.72;5002440;28;19917;-89
2021/01/04 10:04:42;;;;;;;;;;;;;;;3.36;100.00;97590.06;5002838;28;19917;-86
2021/01/04 10:07:10;;;;;;;;;;;;;;;3.29;100.00;97589.47;5002654;28;19921;-89
2021/01/04 10:09:37;;;;;;;;;;;;;;;3.20;100.00;97583.72;5010930;28;19920;-91
2021/01/04 10:12:03;;;;;;;;;;;;;;;3.14;100.00;97582.06;5001156;28;20008;-91
2021/01/04 10:14:29;;;;;;;;;;;;;;;3.09;100.00;97584.72;4993485;28;19941;-88
2021/01/04 10:16:56;;;;;;;;;;;;;;;3.19;100.00;97586.69;4981610;28;19914;-91
2021/01/04 10:19:24;;;;;;;;;;;;;;;3.24;99.94;97575.91;4997681;28;19920;-92
2021/01/04 10:22:02;;;;;;;;;;;;;;;3.33;99.79;97585.19;5017201;28;19917;-90
2021/01/04 10:24:31;;;;;;;;;;;;;;;3.20;100.00;97570.22;5015405;28;20282;-87
2021/01/04 10:27:00;;;;;;;;;;;;;;;3.31;100.00;97568.41;5012997;28;19917;-85
2021/01/04 10:29:26;;;;;;;;;;;;;;;3.36;100.00;97571.16;4996133;28;19952;-85
2021/01/04 10:32:05;;;;;;;;;;;;;;;3.32;100.00;97561.13;4984107;28;19922;-89
2021/01/04 10:34:38;;;;;;;;;;;;;;;3.33;100.00;97568.16;4999472;28;19921;-86
2021/01/04 10:37:03;;;;;;;;;;;;;;;3.30;100.00;97561.38;4975855;28;20067;-88
2021/01/04 10:39:34;;;;;;;;;;;;;;;3.23;99.43;97563.47;4984499;28;20410;-89
2021/01/04 10:42:08;;;;;;;;;;;;;;;3.37;100.00;97556.56;4992577;28;19934;-88
2021/01/04 10:44:34;;;;;;;;;;;;;;;3.30;99.64;97557.84;5010866;28;19963;-88
2021/01/04 10:47:07;;;;;;;;;;;;;;;3.32;100.00;97544.91;4999163;28;19914;-86
2021/01/04 10:49:35;;;;;;;;;;;;;;;3.52;99.26;97528.81;4991783;28;20026;-82
2021/01/04 10:52:02;;;;;;;;;;;;;;;3.58;99.44;97531.28;5031499;28;19913;-86
2021/01/04 10:54:38;;;;;;;;;;;;;;;3.60;98.92;97522.94;5013744;28;19913;-86
2021/01/04 10:57:06;;;;;;;;;;;;;;;3.86;98.76;97530.09;5029734;28;19909;-89
2021/01/04 10:59:39;;;;;;;;;;;;;;;3.95;99.50;97522.28;4994770;28;20384;-86
2021/01/04 11:02:06;;;;;;;;;;;;;;;4.05;98.37;97517.75;4980629;28;19921;-90
2021/01/04 11:04:31;;;;;;;;;;;;;;;4.23;97.00;97514.56;4983007;28;19928;-87
2021/01/04 11:07:03;;;;;;;;;;;;;;;4.29;97.04;97510.78;4985506;28;19917;-87
2021/01/04 11:09:30;;;;;;;;;;;;;;;4.36;96.69;97507.00;4982735;28;19921;-90
2021/01/04 11:12:17;;;;;;;;;;;;;;;4.22;95.11;97502.13;5002170;28;19969;-89
2021/01/04 11:15:01;;;;;;;;;;;;;;;4.22;95.58;97507.53;4983667;28;19925;-88
2021/01/04 11:17:36;;;;;;;;;;;;;;;4.08;95.59;97519.94;4990151;28;19917;-89
2021/01/04 11:20:20;;;;;;;;;;;;;;;4.09;96.96;97502.63;4985467;28;19971;-87
2021/01/04 11:22:45;;;;;;;;;;;;;;;4.16;96.67;97508.59;5002935;28;19959;-86
2021/01/04 11:25:11;;;;;;;;;;;;;;;3.99;96.70;97513.41;5015779;28;19926;-86
2021/01/04 11:27:37;;;;;;;;;;;;;;;4.04;97.25;97508.00;4993209;28;19914;-87
2021/01/04 11:30:03;;;;;;;;;;;;;;;4.03;97.43;97509.09;5016003;28;19913;-84
2021/01/04 11:32:28;;;;;;;;;;;;;;;4.07;97.14;97510.16;4998359;28;19952;-84
2021/01/04 11:34:55;;;;;;;;;;;;;;;4.11;96.50;97510.47;5003378;28;19917;-86
2021/01/04 11:37:22;;;;;;;;;;;;;;;4.06;96.53;97505.84;5010180;28;19924;-81
2021/01/04 11:39:47;;;;;;;;;;;;;;;4.03;97.22;97509.09;5030916;28;19917;-86
2021/01/04 11:42:13;;;;;;;;;;;;;;;4.01;97.64;97495.00;5017501;28;19924;-89
2021/01/04 11:44:38;;;;;;;;;;;;;;;4.08;97.75;97500.16;5018365;28;19909;-85
2021/01/04 11:47:04;;;;;;;;;;;;;;;4.10;97.12;97493.41;5013684;28;19917;-87
2021/01/04 11:49:30;;;;;;;;;;;;;;;4.02;96.74;97493.94;4991995;28;19921;-88
2021/01/04 11:51:55;;;;;;;;;;;;;;;4.01;97.21;97492.28;4999369;28;19931;-87
2021/01/04 11:54:21;;;;;;;;;;;;;;;4.14;97.06;97483.69;5002100;28;19952;-90
2021/01/04 11:56:47;;;;;;;;;;;;;;;4.13;96.71;97482.06;5001312;28;19913;-88
2021/01/04 11:59:13;;;;;;;;;;;;;;;4.04;96.30;97472.81;5018068;28;20294;-85
2021/01/04 12:01:38;;;;;;;;;;;;;;;3.95;96.19;97474.41;5017670;28;19920;-86
2021/01/04 12:04:03;;;;;;;;;;;;;;;3.95;97.32;97471.72;4999378;28;19959;-90
2021/01/04 12:06:29;;;;;;;;;;;;;;;3.96;96.62;97476.03;4999011;28;19913;-86
2021/01/04 12:08:54;;;;;;;;;;;;;;;3.91;96.96;97472.50;4998246;28;20546;-83
2021/01/04 12:11:21;;;;;;;;;;;;;;;3.96;96.93;97477.94;5015063;28;19916;-88
2021/01/04 12:13:47;;;;;;;;;;;;;;;3.84;98.02;97480.88;4997982;28;19917;-88
2021/01/04 12:16:12;;;;;;;;;;;;;;;3.83;98.12;97478.41;5002159;28;20632;-86
2021/01/04 12:18:37;;;;;;;;;;;;;;;3.87;97.28;97474.94;4998643;28;19921;-90
2021/01/04 12:21:03;;;;;;;;;;;;;;;3.92;97.25;97466.00;4987965;28;20264;-88
2021/01/04 12:23:28;;;;;;;;;;;;;;;3.89;97.24;97467.34;4999121;28;19988;-91
2021/01/04 12:25:53;;;;;;;;;;;;;;;4.07;97.51;97472.28;4995954;28;19914;-83
2021/01/04 12:28:19;;;;;;;;;;;;;;;4.08;97.07;97473.94;5002700;28;20314;-86
2021/01/04 12:30:44;;;;;;;;;;;;;;;3.92;96.93;97466.00;5014378;28;19925;-87
2021/01/04 12:33:09;;;;;;;;;;;;;;;4.01;97.28;97467.16;5015765;28;20335;-86
2021/01/04 12:35:34;;;;;;;;;;;;;;;3.99;97.34;97462.00;5015462;28;19901;-88
2021/01/04 12:38:00;;;;;;;;;;;;;;;4.00;97.34;97465.50;5011814;28;19924;-83
2021/01/04 12:40:28;;;;;;;;;;;;;;;4.02;97.56;97464.16;5014737;28;19913;-88
2021/01/04 12:42:54;;;;;;;;;;;;;;;3.85;97.50;97468.97;4997661;28;19954;-87
2021/01/04 12:45:19;;;;;;;;;;;;;;;3.94;97.87;97470.09;4996318;28;19913;-89
2021/01/04 12:47:44;;;;;;;;;;;;;;;3.97;97.46;97466.88;4993408;28;19917;-85
2021/01/04 12:50:10;;;;;;;;;;;;;;;3.89;96.94;97463.84;5002388;28;19930;-86
2021/01/04 12:52:35;;;;;;;;;;;;;;;3.88;97.06;97467.63;5003685;28;19928;-90
2021/01/04 12:55:00;;;;;;;;;;;;;;;3.94;96.85;97470.09;5000657;28;20333;-87
2021/01/04 12:57:26;;;;;;;;;;;;;;;3.97;96.59;97469.56;5002265;28;19921;-83
2021/01/04 12:59:51;;;;;;;;;;;;;;;4.01;97.32;97470.63;4984868;28;19992;-86
2021/01/04 13:02:18;;;;;;;;;;;;;;;3.94;97.05;97463.88;4997761;28;19917;-88
2021/01/04 13:04:43;;;;;;;;;;;;;;;4.00;97.09;97465.50;4984058;28;20282;-89
2021/01/04 13:07:09;;;;;;;;;;;;;;;3.94;96.88;97456.56;4985435;28;20004;-87
2021/01/04 13:09:34;;;;;;;;;;;;;;;4.07;97.36;97461.47;5000498;28;19990;-82
2021/01/04 13:12:00;;;;;;;;;;;;;;;4.12;97.42;97464.19;5010905;28;19917;-89
2021/01/04 13:14:25;;;;;;;;;;;;;;;4.08;97.18;97460.41;5007703;28;19921;-91